< < Back
Terminal Aerodrome Forecast


Current Version              Previous Versions:   1  2  3  4  5  6  7  8  9  

Terminal Aerodrome Forecast

164
FTUS44 KBMX 010500
TAFBHM
TAF
KBHM 010523Z 0106/0206 12003KT P6SM OVC150
     FM011500 16008KT P6SM -RA OVC050
     FM011800 19008KT 2SM RA BR OVC007=



Latest METAR

368
SAUS70 KWBC 011400 RRX
MTRBHM
METAR KBHM 011353Z VRB06KT 10SM FEW033 OVC100 09/01 A3013 RMK AO2 SLP201
T00940011


USA.gov is the U.S. government's official web portal to all federal, state and local government web resources and services.